sensor_id;sensor_type;location;lat;lon;timestamp;P1;durP1;ratioP1;P2;durP2;ratioP2
77814;SDS011;67002;52.124;21.210;2023-02-28T00:01:25;25.10;;;11.80;;
77814;SDS011;67002;52.124;21.210;2023-02-28T00:03:58;24.50;;;13.50;;
77814;SDS011;67002;52.124;21.210;2023-02-28T00:06:30;29.00;;;14.90;;
77814;SDS011;67002;52.124;21.210;2023-02-28T00:09:01;26.00;;;14.30;;
77814;SDS011;67002;52.124;21.210;2023-02-28T00:11:33;38.40;;;17.70;;
77814;SDS011;67002;52.124;21.210;2023-02-28T00:14:06;35.50;;;17.30;;
77814;SDS011;67002;52.124;21.210;2023-02-28T00:16:38;37.60;;;17.60;;
77814;SDS011;67002;52.124;21.210;2023-02-28T00:19:10;37.30;;;17.60;;
77814;SDS011;67002;52.124;21.210;2023-02-28T00:21:42;34.40;;;17.70;;
77814;SDS011;67002;52.124;21.210;2023-02-28T00:24:13;43.90;;;19.40;;
77814;SDS011;67002;52.124;21.210;2023-02-28T00:26:45;115.40;;;41.70;;
77814;SDS011;67002;52.124;21.210;2023-02-28T00:29:17;84.30;;;29.60;;
77814;SDS011;67002;52.124;21.210;2023-02-28T00:31:49;56.60;;;22.80;;
77814;SDS011;67002;52.124;21.210;2023-02-28T00:34:20;35.50;;;17.70;;
77814;SDS011;67002;52.124;21.210;2023-02-28T00:36:52;38.30;;;17.70;;
77814;SDS011;67002;52.124;21.210;2023-02-28T00:39:24;34.00;;;17.90;;
77814;SDS011;67002;52.124;21.210;2023-02-28T00:41:57;29.80;;;14.60;;
77814;SDS011;67002;52.124;21.210;2023-02-28T00:44:29;33.20;;;18.30;;
77814;SDS011;67002;52.124;21.210;2023-02-28T00:47:00;25.40;;;13.20;;
77814;SDS011;67002;52.124;21.210;2023-02-28T00:49:32;28.20;;;16.60;;
77814;SDS011;67002;52.124;21.210;2023-02-28T00:52:04;36.60;;;18.80;;
77814;SDS011;67002;52.124;21.210;2023-02-28T00:54:36;36.70;;;19.30;;
77814;SDS011;67002;52.124;21.210;2023-02-28T00:57:09;32.80;;;16.60;;
77814;SDS011;67002;52.124;21.210;2023-02-28T00:59:41;34.00;;;16.90;;
77814;SDS011;67002;52.124;21.210;2023-02-28T01:02:13;36.40;;;17.40;;
77814;SDS011;67002;52.124;21.210;2023-02-28T01:04:44;34.90;;;18.40;;
77814;SDS011;67002;52.124;21.210;2023-02-28T01:07:16;34.40;;;16.40;;
77814;SDS011;67002;52.124;21.210;2023-02-28T01:09:48;37.10;;;17.60;;
77814;SDS011;67002;52.124;21.210;2023-02-28T01:12:20;32.90;;;16.30;;
77814;SDS011;67002;52.124;21.210;2023-02-28T01:14:52;31.40;;;17.30;;
77814;SDS011;67002;52.124;21.210;2023-02-28T01:17:23;32.90;;;16.30;;
77814;SDS011;67002;52.124;21.210;2023-02-28T01:19:55;32.30;;;14.70;;
77814;SDS011;67002;52.124;21.210;2023-02-28T01:22:27;32.70;;;16.30;;
77814;SDS011;67002;52.124;21.210;2023-02-28T01:24:59;29.20;;;14.60;;
77814;SDS011;67002;52.124;21.210;2023-02-28T01:27:33;23.10;;;12.80;;
77814;SDS011;67002;52.124;21.210;2023-02-28T01:30:05;29.10;;;15.20;;
77814;SDS011;67002;52.124;21.210;2023-02-28T01:32:38;32.30;;;14.20;;
77814;SDS011;67002;52.124;21.210;2023-02-28T01:35:10;36.40;;;16.50;;
77814;SDS011;67002;52.124;21.210;2023-02-28T01:37:42;35.80;;;15.70;;
77814;SDS011;67002;52.124;21.210;2023-02-28T01:40:14;34.20;;;16.30;;
77814;SDS011;67002;52.124;21.210;2023-02-28T01:42:46;41.30;;;16.80;;
77814;SDS011;67002;52.124;21.210;2023-02-28T01:45:20;34.20;;;16.30;;
77814;SDS011;67002;52.124;21.210;2023-02-28T01:47:54;28.80;;;15.10;;
77814;SDS011;67002;52.124;21.210;2023-02-28T01:50:28;32.40;;;15.50;;
77814;SDS011;67002;52.124;21.210;2023-02-28T01:53:03;35.10;;;15.30;;
77814;SDS011;67002;52.124;21.210;2023-02-28T01:55:36;25.90;;;12.30;;
77814;SDS011;67002;52.124;21.210;2023-02-28T01:58:08;31.20;;;14.70;;
77814;SDS011;67002;52.124;21.210;2023-02-28T02:00:40;30.00;;;14.70;;
77814;SDS011;67002;52.124;21.210;2023-02-28T02:03:13;24.90;;;12.20;;
77814;SDS011;67002;52.124;21.210;2023-02-28T02:05:47;29.30;;;13.30;;
77814;SDS011;67002;52.124;21.210;2023-02-28T02:08:21;31.30;;;14.30;;
77814;SDS011;67002;52.124;21.210;2023-02-28T02:10:55;31.70;;;15.00;;
77814;SDS011;67002;52.124;21.210;2023-02-28T02:13:40;30.00;;;14.80;;
77814;SDS011;67002;52.124;21.210;2023-02-28T02:16:25;26.10;;;13.40;;
77814;SDS011;67002;52.124;21.210;2023-02-28T02:19:13;26.50;;;12.50;;
77814;SDS011;67002;52.124;21.210;2023-02-28T02:21:57;27.40;;;12.80;;
77814;SDS011;67002;52.124;21.210;2023-02-28T02:24:55;26.20;;;12.40;;
77814;SDS011;67002;52.124;21.210;2023-02-28T02:27:39;26.60;;;12.40;;
77814;SDS011;67002;52.124;21.210;2023-02-28T02:30:25;24.20;;;12.30;;
77814;SDS011;67002;52.124;21.210;2023-02-28T02:33:31;23.80;;;11.40;;
77814;SDS011;67002;52.124;21.210;2023-02-28T02:36:28;27.20;;;12.30;;
77814;SDS011;67002;52.124;21.210;2023-02-28T02:39:03;24.80;;;11.00;;
77814;SDS011;67002;52.124;21.210;2023-02-28T02:41:40;23.70;;;12.70;;
77814;SDS011;67002;52.124;21.210;2023-02-28T02:44:20;24.80;;;12.00;;
77814;SDS011;67002;52.124;21.210;2023-02-28T02:46:54;23.50;;;11.40;;
77814;SDS011;67002;52.124;21.210;2023-02-28T02:49:31;26.60;;;12.50;;
77814;SDS011;67002;52.124;21.210;2023-02-28T02:52:04;20.80;;;11.70;;
77814;SDS011;67002;52.124;21.210;2023-02-28T02:54:39;24.50;;;10.90;;
77814;SDS011;67002;52.124;21.210;2023-02-28T02:57:14;22.70;;;11.70;;
77814;SDS011;67002;52.124;21.210;2023-02-28T02:59:50;22.20;;;11.20;;
77814;SDS011;67002;52.124;21.210;2023-02-28T03:02:24;20.90;;;10.50;;
77814;SDS011;67002;52.124;21.210;2023-02-28T03:04:57;19.30;;;8.70;;
77814;SDS011;67002;52.124;21.210;2023-02-28T03:07:31;22.70;;;12.20;;
77814;SDS011;67002;52.124;21.210;2023-02-28T03:10:25;14.40;;;8.60;;
77814;SDS011;67002;52.124;21.210;2023-02-28T03:13:11;10.90;;;6.30;;
77814;SDS011;67002;52.124;21.210;2023-02-28T03:15:53;18.50;;;9.80;;
77814;SDS011;67002;52.124;21.210;2023-02-28T03:18:32;21.70;;;10.10;;
77814;SDS011;67002;52.124;21.210;2023-02-28T03:21:11;26.00;;;12.30;;
77814;SDS011;67002;52.124;21.210;2023-02-28T03:23:48;27.60;;;12.70;;
77814;SDS011;67002;52.124;21.210;2023-02-28T03:26:24;24.00;;;12.20;;
77814;SDS011;67002;52.124;21.210;2023-02-28T03:29:00;25.50;;;11.30;;
77814;SDS011;67002;52.124;21.210;2023-02-28T03:31:36;24.80;;;11.30;;
77814;SDS011;67002;52.124;21.210;2023-02-28T03:34:10;21.30;;;10.80;;
77814;SDS011;67002;52.124;21.210;2023-02-28T03:36:45;23.30;;;11.90;;
77814;SDS011;67002;52.124;21.210;2023-02-28T03:39:20;25.20;;;10.30;;
77814;SDS011;67002;52.124;21.210;2023-02-28T03:41:54;15.70;;;7.90;;
77814;SDS011;67002;52.124;21.210;2023-02-28T03:47:00;17.10;;;8.60;;
77814;SDS011;67002;52.124;21.210;2023-02-28T03:49:34;25.00;;;11.10;;
77814;SDS011;67002;52.124;21.210;2023-02-28T03:52:08;26.40;;;12.20;;
77814;SDS011;67002;52.124;21.210;2023-02-28T03:54:41;25.90;;;12.50;;
77814;SDS011;67002;52.124;21.210;2023-02-28T03:57:15;22.80;;;11.40;;
77814;SDS011;67002;52.124;21.210;2023-02-28T03:59:51;25.00;;;12.20;;
77814;SDS011;67002;52.124;21.210;2023-02-28T04:02:24;25.20;;;10.80;;
77814;SDS011;67002;52.124;21.210;2023-02-28T04:04:56;24.00;;;11.50;;
77814;SDS011;67002;52.124;21.210;2023-02-28T04:07:30;21.50;;;12.10;;
77814;SDS011;67002;52.124;21.210;2023-02-28T04:10:02;17.70;;;9.70;;
77814;SDS011;67002;52.124;21.210;2023-02-28T04:12:35;20.10;;;10.90;;
77814;SDS011;67002;52.124;21.210;2023-02-28T04:15:08;22.00;;;10.50;;
77814;SDS011;67002;52.124;21.210;2023-02-28T04:17:40;21.80;;;11.40;;
77814;SDS011;67002;52.124;21.210;2023-02-28T04:20:12;21.80;;;10.40;;
77814;SDS011;67002;52.124;21.210;2023-02-28T04:22:44;22.90;;;11.60;;
77814;SDS011;67002;52.124;21.210;2023-02-28T04:25:16;28.10;;;12.60;;
77814;SDS011;67002;52.124;21.210;2023-02-28T04:27:48;26.40;;;13.00;;
77814;SDS011;67002;52.124;21.210;2023-02-28T04:30:20;26.10;;;13.20;;
77814;SDS011;67002;52.124;21.210;2023-02-28T04:32:51;26.20;;;11.40;;
77814;SDS011;67002;52.124;21.210;2023-02-28T04:35:23;29.50;;;13.10;;
77814;SDS011;67002;52.124;21.210;2023-02-28T04:37:55;23.20;;;12.80;;
77814;SDS011;67002;52.124;21.210;2023-02-28T04:40:26;24.10;;;13.60;;
77814;SDS011;67002;52.124;21.210;2023-02-28T04:42:58;27.30;;;13.50;;
77814;SDS011;67002;52.124;21.210;2023-02-28T04:45:30;27.70;;;12.80;;
77814;SDS011;67002;52.124;21.210;2023-02-28T04:48:02;24.40;;;13.10;;
77814;SDS011;67002;52.124;21.210;2023-02-28T04:50:34;24.30;;;12.20;;
77814;SDS011;67002;52.124;21.210;2023-02-28T04:53:06;28.10;;;13.80;;
77814;SDS011;67002;52.124;21.210;2023-02-28T04:55:37;31.70;;;14.80;;
77814;SDS011;67002;52.124;21.210;2023-02-28T04:58:09;30.00;;;13.90;;
77814;SDS011;67002;52.124;21.210;2023-02-28T05:00:41;24.30;;;12.40;;
77814;SDS011;67002;52.124;21.210;2023-02-28T05:03:13;23.10;;;11.30;;
77814;SDS011;67002;52.124;21.210;2023-02-28T05:05:44;25.20;;;12.50;;
77814;SDS011;67002;52.124;21.210;2023-02-28T05:08:16;24.60;;;12.50;;
77814;SDS011;67002;52.124;21.210;2023-02-28T05:10:48;27.10;;;11.70;;
77814;SDS011;67002;52.124;21.210;2023-02-28T05:13:19;25.60;;;10.90;;
77814;SDS011;67002;52.124;21.210;2023-02-28T05:15:51;19.20;;;9.00;;
77814;SDS011;67002;52.124;21.210;2023-02-28T05:18:23;21.90;;;10.00;;
77814;SDS011;67002;52.124;21.210;2023-02-28T05:20:55;27.30;;;11.90;;
77814;SDS011;67002;52.124;21.210;2023-02-28T05:23:27;24.90;;;11.00;;
77814;SDS011;67002;52.124;21.210;2023-02-28T05:25:59;22.70;;;11.20;;
77814;SDS011;67002;52.124;21.210;2023-02-28T05:28:30;49.20;;;20.10;;
77814;SDS011;67002;52.124;21.210;2023-02-28T05:31:02;46.60;;;21.90;;
77814;SDS011;67002;52.124;21.210;2023-02-28T05:33:34;43.40;;;20.90;;
77814;SDS011;67002;52.124;21.210;2023-02-28T05:36:07;37.00;;;17.90;;
77814;SDS011;67002;52.124;21.210;2023-02-28T05:38:39;34.00;;;16.10;;
77814;SDS011;67002;52.124;21.210;2023-02-28T05:41:11;73.80;;;28.00;;
77814;SDS011;67002;52.124;21.210;2023-02-28T05:43:42;38.90;;;17.60;;
77814;SDS011;67002;52.124;21.210;2023-02-28T05:46:14;35.40;;;16.10;;
77814;SDS011;67002;52.124;21.210;2023-02-28T05:48:47;34.30;;;15.90;;
77814;SDS011;67002;52.124;21.210;2023-02-28T05:51:20;33.20;;;16.10;;
77814;SDS011;67002;52.124;21.210;2023-02-28T05:53:52;41.30;;;17.30;;
77814;SDS011;67002;52.124;21.210;2023-02-28T05:56:23;34.40;;;15.20;;
77814;SDS011;67002;52.124;21.210;2023-02-28T05:58:55;32.70;;;13.60;;
77814;SDS011;67002;52.124;21.210;2023-02-28T06:01:32;56.00;;;22.30;;
77814;SDS011;67002;52.124;21.210;2023-02-28T06:04:05;56.80;;;22.30;;
77814;SDS011;67002;52.124;21.210;2023-02-28T06:06:53;44.50;;;18.90;;
77814;SDS011;67002;52.124;21.210;2023-02-28T06:09:26;41.70;;;20.10;;
77814;SDS011;67002;52.124;21.210;2023-02-28T06:11:58;56.80;;;24.00;;
77814;SDS011;67002;52.124;21.210;2023-02-28T06:14:32;56.60;;;23.40;;
77814;SDS011;67002;52.124;21.210;2023-02-28T06:17:04;64.20;;;25.50;;
77814;SDS011;67002;52.124;21.210;2023-02-28T06:19:37;53.50;;;20.90;;
77814;SDS011;67002;52.124;21.210;2023-02-28T06:22:10;40.70;;;18.30;;
77814;SDS011;67002;52.124;21.210;2023-02-28T06:24:41;48.90;;;22.30;;
77814;SDS011;67002;52.124;21.210;2023-02-28T06:27:13;43.50;;;20.90;;
77814;SDS011;67002;52.124;21.210;2023-02-28T06:29:45;44.10;;;19.80;;
77814;SDS011;67002;52.124;21.210;2023-02-28T06:32:17;48.30;;;18.60;;
77814;SDS011;67002;52.124;21.210;2023-02-28T06:34:49;32.50;;;16.30;;
77814;SDS011;67002;52.124;21.210;2023-02-28T06:37:21;38.20;;;14.80;;
77814;SDS011;67002;52.124;21.210;2023-02-28T06:39:55;30.60;;;14.10;;
77814;SDS011;67002;52.124;21.210;2023-02-28T06:42:26;29.60;;;13.80;;
77814;SDS011;67002;52.124;21.210;2023-02-28T06:44:59;18.80;;;11.10;;
77814;SDS011;67002;52.124;21.210;2023-02-28T06:47:38;15.90;;;9.30;;
77814;SDS011;67002;52.124;21.210;2023-02-28T06:50:11;18.90;;;9.30;;
77814;SDS011;67002;52.124;21.210;2023-02-28T06:52:43;20.00;;;9.70;;
77814;SDS011;67002;52.124;21.210;2023-02-28T06:55:15;15.40;;;8.40;;
77814;SDS011;67002;52.124;21.210;2023-02-28T06:57:47;16.60;;;9.50;;
77814;SDS011;67002;52.124;21.210;2023-02-28T07:00:20;18.80;;;10.00;;
77814;SDS011;67002;52.124;21.210;2023-02-28T07:02:52;19.50;;;9.60;;
77814;SDS011;67002;52.124;21.210;2023-02-28T07:05:24;16.10;;;9.60;;
77814;SDS011;67002;52.124;21.210;2023-02-28T07:07:56;15.70;;;9.20;;
77814;SDS011;67002;52.124;21.210;2023-02-28T07:10:28;14.60;;;8.20;;
77814;SDS011;67002;52.124;21.210;2023-02-28T07:13:00;16.40;;;8.80;;
77814;SDS011;67002;52.124;21.210;2023-02-28T07:15:33;14.00;;;8.10;;
77814;SDS011;67002;52.124;21.210;2023-02-28T07:18:09;14.90;;;7.60;;
77814;SDS011;67002;52.124;21.210;2023-02-28T07:20:41;13.00;;;7.30;;
77814;SDS011;67002;52.124;21.210;2023-02-28T07:23:13;14.70;;;7.50;;
77814;SDS011;67002;52.124;21.210;2023-02-28T07:25:45;10.20;;;6.60;;
77814;SDS011;67002;52.124;21.210;2023-02-28T07:28:16;16.40;;;7.60;;
77814;SDS011;67002;52.124;21.210;2023-02-28T07:30:48;12.50;;;7.70;;
77814;SDS011;67002;52.124;21.210;2023-02-28T07:33:20;14.30;;;8.90;;
77814;SDS011;67002;52.124;21.210;2023-02-28T07:35:56;15.50;;;7.80;;
77814;SDS011;67002;52.124;21.210;2023-02-28T07:38:33;13.10;;;7.70;;
77814;SDS011;67002;52.124;21.210;2023-02-28T07:41:05;9.40;;;5.50;;
77814;SDS011;67002;52.124;21.210;2023-02-28T07:43:37;9.80;;;6.40;;
77814;SDS011;67002;52.124;21.210;2023-02-28T07:46:09;10.80;;;7.10;;
77814;SDS011;67002;52.124;21.210;2023-02-28T07:48:44;8.30;;;5.90;;
77814;SDS011;67002;52.124;21.210;2023-02-28T07:51:15;8.10;;;5.50;;
77814;SDS011;67002;52.124;21.210;2023-02-28T07:53:47;10.90;;;7.30;;
77814;SDS011;67002;52.124;21.210;2023-02-28T07:56:19;9.70;;;5.50;;
77814;SDS011;67002;52.124;21.210;2023-02-28T07:58:51;8.40;;;5.00;;
77814;SDS011;67002;52.124;21.210;2023-02-28T08:01:23;8.30;;;4.70;;
77814;SDS011;67002;52.124;21.210;2023-02-28T08:03:54;6.20;;;4.00;;
77814;SDS011;67002;52.124;21.210;2023-02-28T08:06:26;7.30;;;4.60;;
77814;SDS011;67002;52.124;21.210;2023-02-28T08:08:58;7.10;;;5.00;;
77814;SDS011;67002;52.124;21.210;2023-02-28T08:11:30;8.70;;;5.00;;
77814;SDS011;67002;52.124;21.210;2023-02-28T08:14:01;10.00;;;4.90;;
77814;SDS011;67002;52.124;21.210;2023-02-28T08:20:34;8.20;;;5.00;;
77814;SDS011;67002;52.124;21.210;2023-02-28T08:23:03;7.90;;;4.50;;
77814;SDS011;67002;52.124;21.210;2023-02-28T08:25:31;9.70;;;5.70;;
77814;SDS011;67002;52.124;21.210;2023-02-28T08:27:59;9.30;;;5.50;;
77814;SDS011;67002;52.124;21.210;2023-02-28T08:30:29;9.90;;;6.50;;
77814;SDS011;67002;52.124;21.210;2023-02-28T08:32:57;8.80;;;5.90;;
77814;SDS011;67002;52.124;21.210;2023-02-28T08:35:25;10.70;;;5.90;;
77814;SDS011;67002;52.124;21.210;2023-02-28T08:37:54;10.00;;;5.90;;
77814;SDS011;67002;52.124;21.210;2023-02-28T08:40:22;9.40;;;5.30;;
77814;SDS011;67002;52.124;21.210;2023-02-28T08:42:51;8.80;;;5.40;;
77814;SDS011;67002;52.124;21.210;2023-02-28T08:45:19;12.00;;;6.30;;
77814;SDS011;67002;52.124;21.210;2023-02-28T08:47:48;10.70;;;5.60;;
77814;SDS011;67002;52.124;21.210;2023-02-28T08:50:19;8.00;;;4.50;;
77814;SDS011;67002;52.124;21.210;2023-02-28T08:52:47;10.30;;;7.30;;
77814;SDS011;67002;52.124;21.210;2023-02-28T08:55:16;10.90;;;6.30;;
77814;SDS011;67002;52.124;21.210;2023-02-28T08:57:44;8.90;;;6.40;;
77814;SDS011;67002;52.124;21.210;2023-02-28T09:00:13;9.00;;;5.00;;
77814;SDS011;67002;52.124;21.210;2023-02-28T09:02:42;8.40;;;4.70;;
77814;SDS011;67002;52.124;21.210;2023-02-28T09:05:10;7.90;;;5.80;;
77814;SDS011;67002;52.124;21.210;2023-02-28T09:07:38;9.70;;;6.10;;
77814;SDS011;67002;52.124;21.210;2023-02-28T09:10:08;8.30;;;4.50;;
77814;SDS011;67002;52.124;21.210;2023-02-28T09:12:37;6.10;;;4.00;;
77814;SDS011;67002;52.124;21.210;2023-02-28T09:15:10;7.90;;;4.50;;
77814;SDS011;67002;52.124;21.210;2023-02-28T09:17:38;9.00;;;4.60;;
77814;SDS011;67002;52.124;21.210;2023-02-28T09:20:08;4.40;;;2.90;;
77814;SDS011;67002;52.124;21.210;2023-02-28T09:22:38;7.80;;;4.60;;
77814;SDS011;67002;52.124;21.210;2023-02-28T09:25:07;7.20;;;4.40;;
77814;SDS011;67002;52.124;21.210;2023-02-28T09:27:35;5.90;;;3.70;;
77814;SDS011;67002;52.124;21.210;2023-02-28T09:30:04;10.20;;;4.60;;
77814;SDS011;67002;52.124;21.210;2023-02-28T09:32:35;6.60;;;4.40;;
77814;SDS011;67002;52.124;21.210;2023-02-28T09:35:04;8.70;;;4.00;;
77814;SDS011;67002;52.124;21.210;2023-02-28T09:37:33;6.80;;;4.20;;
77814;SDS011;67002;52.124;21.210;2023-02-28T09:40:01;5.10;;;2.70;;
77814;SDS011;67002;52.124;21.210;2023-02-28T09:42:31;4.60;;;3.20;;
77814;SDS011;67002;52.124;21.210;2023-02-28T09:45:02;5.60;;;3.80;;
77814;SDS011;67002;52.124;21.210;2023-02-28T09:47:34;5.70;;;3.60;;
77814;SDS011;67002;52.124;21.210;2023-02-28T09:50:06;6.80;;;4.60;;
77814;SDS011;67002;52.124;21.210;2023-02-28T09:52:44;6.50;;;4.50;;
77814;SDS011;67002;52.124;21.210;2023-02-28T09:55:18;6.90;;;3.50;;
77814;SDS011;67002;52.124;21.210;2023-02-28T09:57:50;6.80;;;4.50;;
77814;SDS011;67002;52.124;21.210;2023-02-28T10:00:20;5.40;;;4.10;;
77814;SDS011;67002;52.124;21.210;2023-02-28T10:05:52;7.10;;;5.10;;
77814;SDS011;67002;52.124;21.210;2023-02-28T10:08:24;6.90;;;4.40;;
77814;SDS011;67002;52.124;21.210;2023-02-28T10:10:55;6.40;;;4.40;;
77814;SDS011;67002;52.124;21.210;2023-02-28T10:13:25;5.40;;;3.50;;
77814;SDS011;67002;52.124;21.210;2023-02-28T10:15:58;7.20;;;4.60;;
77814;SDS011;67002;52.124;21.210;2023-02-28T10:18:29;8.10;;;5.20;;
77814;SDS011;67002;52.124;21.210;2023-02-28T10:21:01;5.40;;;3.70;;
77814;SDS011;67002;52.124;21.210;2023-02-28T10:23:34;8.10;;;4.60;;
77814;SDS011;67002;52.124;21.210;2023-02-28T10:26:08;7.50;;;5.10;;
77814;SDS011;67002;52.124;21.210;2023-02-28T10:28:39;3.60;;;2.50;;
77814;SDS011;67002;52.124;21.210;2023-02-28T10:31:08;7.10;;;4.30;;
77814;SDS011;67002;52.124;21.210;2023-02-28T10:33:43;5.90;;;4.50;;
77814;SDS011;67002;52.124;21.210;2023-02-28T10:36:13;6.20;;;4.50;;
77814;SDS011;67002;52.124;21.210;2023-02-28T10:38:43;8.00;;;4.70;;
77814;SDS011;67002;52.124;21.210;2023-02-28T10:41:13;8.30;;;3.60;;
77814;SDS011;67002;52.124;21.210;2023-02-28T10:43:45;6.90;;;4.90;;
77814;SDS011;67002;52.124;21.210;2023-02-28T10:46:14;6.40;;;4.70;;
77814;SDS011;67002;52.124;21.210;2023-02-28T10:49:00;6.90;;;4.30;;
77814;SDS011;67002;52.124;21.210;2023-02-28T10:51:37;5.40;;;3.30;;
77814;SDS011;67002;52.124;21.210;2023-02-28T10:54:10;5.90;;;4.10;;
77814;SDS011;67002;52.124;21.210;2023-02-28T10:56:43;8.60;;;4.70;;
77814;SDS011;67002;52.124;21.210;2023-02-28T10:59:24;6.80;;;4.90;;
77814;SDS011;67002;52.124;21.210;2023-02-28T11:01:56;5.30;;;3.80;;
77814;SDS011;67002;52.124;21.210;2023-02-28T11:04:34;7.90;;;4.60;;
77814;SDS011;67002;52.124;21.210;2023-02-28T11:07:05;7.60;;;4.90;;
77814;SDS011;67002;52.124;21.210;2023-02-28T11:09:37;7.20;;;4.60;;
77814;SDS011;67002;52.124;21.210;2023-02-28T11:12:07;7.40;;;5.00;;
77814;SDS011;67002;52.124;21.210;2023-02-28T11:14:49;7.90;;;5.20;;
77814;SDS011;67002;52.124;21.210;2023-02-28T11:17:20;9.90;;;4.80;;
77814;SDS011;67002;52.124;21.210;2023-02-28T11:19:51;7.10;;;4.50;;
77814;SDS011;67002;52.124;21.210;2023-02-28T11:22:21;6.70;;;4.90;;
77814;SDS011;67002;52.124;21.210;2023-02-28T11:24:51;6.30;;;5.10;;
77814;SDS011;67002;52.124;21.210;2023-02-28T11:30:27;7.00;;;4.90;;
77814;SDS011;67002;52.124;21.210;2023-02-28T11:32:57;6.40;;;3.70;;
77814;SDS011;67002;52.124;21.210;2023-02-28T11:35:28;8.10;;;5.50;;
77814;SDS011;67002;52.124;21.210;2023-02-28T11:37:58;6.10;;;4.80;;
77814;SDS011;67002;52.124;21.210;2023-02-28T11:40:30;6.20;;;4.20;;
77814;SDS011;67002;52.124;21.210;2023-02-28T11:43:16;5.60;;;4.00;;
77814;SDS011;67002;52.124;21.210;2023-02-28T11:46:02;6.60;;;4.30;;
77814;SDS011;67002;52.124;21.210;2023-02-28T11:48:40;8.30;;;5.60;;
77814;SDS011;67002;52.124;21.210;2023-02-28T11:51:14;5.80;;;3.80;;
77814;SDS011;67002;52.124;21.210;2023-02-28T11:53:51;6.10;;;4.30;;
77814;SDS011;67002;52.124;21.210;2023-02-28T11:56:28;11.00;;;6.20;;
77814;SDS011;67002;52.124;21.210;2023-02-28T11:59:03;5.50;;;4.10;;
77814;SDS011;67002;52.124;21.210;2023-02-28T12:01:43;7.20;;;5.20;;
77814;SDS011;67002;52.124;21.210;2023-02-28T12:04:24;4.00;;;3.10;;
77814;SDS011;67002;52.124;21.210;2023-02-28T12:06:56;7.50;;;4.50;;
77814;SDS011;67002;52.124;21.210;2023-02-28T12:09:36;9.10;;;5.10;;
77814;SDS011;67002;52.124;21.210;2023-02-28T12:12:14;7.00;;;5.20;;
77814;SDS011;67002;52.124;21.210;2023-02-28T12:14:56;4.20;;;3.00;;
77814;SDS011;67002;52.124;21.210;2023-02-28T12:17:42;7.70;;;4.10;;
77814;SDS011;67002;52.124;21.210;2023-02-28T12:20:18;6.00;;;3.90;;
77814;SDS011;67002;52.124;21.210;2023-02-28T12:22:57;6.70;;;4.70;;
77814;SDS011;67002;52.124;21.210;2023-02-28T12:25:55;7.10;;;5.00;;
77814;SDS011;67002;52.124;21.210;2023-02-28T12:28:30;6.80;;;4.70;;
77814;SDS011;67002;52.124;21.210;2023-02-28T12:31:03;3.30;;;2.20;;
77814;SDS011;67002;52.124;21.210;2023-02-28T12:33:34;8.10;;;4.30;;
77814;SDS011;67002;52.124;21.210;2023-02-28T12:36:04;6.50;;;4.00;;
77814;SDS011;67002;52.124;21.210;2023-02-28T12:38:37;7.50;;;4.60;;
77814;SDS011;67002;52.124;21.210;2023-02-28T12:41:10;6.60;;;4.70;;
77814;SDS011;67002;52.124;21.210;2023-02-28T12:43:42;6.10;;;4.80;;
77814;SDS011;67002;52.124;21.210;2023-02-28T12:46:14;5.40;;;3.80;;
77814;SDS011;67002;52.124;21.210;2023-02-28T12:48:46;7.10;;;5.00;;
77814;SDS011;67002;52.124;21.210;2023-02-28T12:51:15;6.60;;;4.70;;
77814;SDS011;67002;52.124;21.210;2023-02-28T12:53:51;6.20;;;4.30;;
77814;SDS011;67002;52.124;21.210;2023-02-28T12:56:27;7.20;;;4.00;;
77814;SDS011;67002;52.124;21.210;2023-02-28T12:59:02;8.60;;;5.30;;
77814;SDS011;67002;52.124;21.210;2023-02-28T13:01:49;8.50;;;5.00;;
77814;SDS011;67002;52.124;21.210;2023-02-28T13:04:41;6.90;;;4.70;;
77814;SDS011;67002;52.124;21.210;2023-02-28T13:07:31;9.30;;;4.90;;
77814;SDS011;67002;52.124;21.210;2023-02-28T13:10:15;7.20;;;4.80;;
77814;SDS011;67002;52.124;21.210;2023-02-28T13:12:49;8.50;;;5.70;;
77814;SDS011;67002;52.124;21.210;2023-02-28T13:15:19;9.30;;;5.00;;
77814;SDS011;67002;52.124;21.210;2023-02-28T13:17:51;8.50;;;5.80;;
77814;SDS011;67002;52.124;21.210;2023-02-28T13:20:21;6.30;;;4.70;;
77814;SDS011;67002;52.124;21.210;2023-02-28T13:22:52;7.40;;;5.00;;
77814;SDS011;67002;52.124;21.210;2023-02-28T13:31:33;7.20;;;5.60;;
77814;SDS011;67002;52.124;21.210;2023-02-28T13:34:40;7.70;;;5.50;;
77814;SDS011;67002;52.124;21.210;2023-02-28T13:40:06;5.80;;;4.70;;
77814;SDS011;67002;52.124;21.210;2023-02-28T13:42:55;6.60;;;4.70;;
77814;SDS011;67002;52.124;21.210;2023-02-28T13:45:25;8.60;;;5.60;;
77814;SDS011;67002;52.124;21.210;2023-02-28T13:47:55;9.30;;;5.10;;
77814;SDS011;67002;52.124;21.210;2023-02-28T13:50:31;8.10;;;5.40;;
77814;SDS011;67002;52.124;21.210;2023-02-28T13:53:14;8.00;;;6.30;;
77814;SDS011;67002;52.124;21.210;2023-02-28T13:56:03;7.00;;;4.70;;
77814;SDS011;67002;52.124;21.210;2023-02-28T13:58:42;6.80;;;5.10;;
77814;SDS011;67002;52.124;21.210;2023-02-28T14:01:20;8.60;;;5.90;;
77814;SDS011;67002;52.124;21.210;2023-02-28T14:04:01;7.40;;;5.50;;
77814;SDS011;67002;52.124;21.210;2023-02-28T14:06:38;9.60;;;6.30;;
77814;SDS011;67002;52.124;21.210;2023-02-28T14:09:16;8.60;;;5.80;;
77814;SDS011;67002;52.124;21.210;2023-02-28T14:11:50;16.50;;;6.50;;
77814;SDS011;67002;52.124;21.210;2023-02-28T14:17:24;10.60;;;5.80;;
77814;SDS011;67002;52.124;21.210;2023-02-28T14:19:55;8.50;;;5.90;;
77814;SDS011;67002;52.124;21.210;2023-02-28T14:22:45;8.70;;;6.20;;
77814;SDS011;67002;52.124;21.210;2023-02-28T14:25:23;9.60;;;6.90;;
77814;SDS011;67002;52.124;21.210;2023-02-28T14:28:01;7.40;;;5.60;;
77814;SDS011;67002;52.124;21.210;2023-02-28T14:33:47;8.20;;;5.00;;
77814;SDS011;67002;52.124;21.210;2023-02-28T14:36:27;8.90;;;5.80;;
77814;SDS011;67002;52.124;21.210;2023-02-28T14:39:00;8.50;;;6.60;;
77814;SDS011;67002;52.124;21.210;2023-02-28T14:41:32;9.30;;;6.80;;
77814;SDS011;67002;52.124;21.210;2023-02-28T14:44:12;8.80;;;6.50;;
77814;SDS011;67002;52.124;21.210;2023-02-28T14:46:42;8.40;;;6.40;;
77814;SDS011;67002;52.124;21.210;2023-02-28T14:49:15;7.90;;;5.70;;
77814;SDS011;67002;52.124;21.210;2023-02-28T14:51:45;7.90;;;5.50;;
77814;SDS011;67002;52.124;21.210;2023-02-28T14:54:15;10.50;;;6.40;;
77814;SDS011;67002;52.124;21.210;2023-02-28T14:56:44;9.20;;;5.70;;
77814;SDS011;67002;52.124;21.210;2023-02-28T14:59:25;7.70;;;5.80;;
77814;SDS011;67002;52.124;21.210;2023-02-28T15:04:44;7.80;;;5.80;;
77814;SDS011;67002;52.124;21.210;2023-02-28T15:07:21;7.50;;;5.90;;
77814;SDS011;67002;52.124;21.210;2023-02-28T15:10:09;8.10;;;6.40;;
77814;SDS011;67002;52.124;21.210;2023-02-28T15:12:38;11.70;;;6.30;;
77814;SDS011;67002;52.124;21.210;2023-02-28T15:15:14;7.40;;;5.10;;
77814;SDS011;67002;52.124;21.210;2023-02-28T15:17:43;8.90;;;5.20;;
77814;SDS011;67002;52.124;21.210;2023-02-28T15:20:13;7.90;;;5.50;;
77814;SDS011;67002;52.124;21.210;2023-02-28T15:22:42;7.60;;;5.70;;
77814;SDS011;67002;52.124;21.210;2023-02-28T15:25:10;7.20;;;5.30;;
77814;SDS011;67002;52.124;21.210;2023-02-28T15:27:46;6.80;;;5.30;;
77814;SDS011;67002;52.124;21.210;2023-02-28T15:30:16;8.30;;;5.20;;